createdAt,value
2018-03-06T00:01:10.275Z,99.90
2018-03-06T00:03:37.732Z,99.90
2018-03-06T00:06:05.191Z,99.90
2018-03-06T00:08:32.649Z,99.90
2018-03-06T00:11:00.096Z,99.90
2018-03-06T00:13:27.551Z,99.90
2018-03-06T00:15:55.780Z,99.90
2018-03-06T00:18:24.045Z,99.90
2018-03-06T00:20:51.495Z,99.90
2018-03-06T00:23:18.955Z,99.90
2018-03-06T00:25:46.455Z,99.90
2018-03-06T00:28:13.902Z,99.90
2018-03-06T00:30:41.354Z,99.90
2018-03-06T00:33:08.827Z,99.90
2018-03-06T00:35:36.272Z,99.90
2018-03-06T00:38:03.727Z,99.90
2018-03-06T00:40:31.180Z,99.90
2018-03-06T00:42:59.592Z,99.90
2018-03-06T00:45:27.061Z,99.90
2018-03-06T00:47:54.519Z,99.90
2018-03-06T00:50:21.972Z,99.90
2018-03-06T00:52:49.418Z,99.90
2018-03-06T00:55:16.881Z,99.90
2018-03-06T00:57:44.324Z,99.90
2018-03-06T01:00:12.575Z,99.90
2018-03-06T01:02:40.796Z,99.90
2018-03-06T01:05:08.267Z,99.90
2018-03-06T01:07:35.719Z,99.90
2018-03-06T01:10:03.186Z,99.90
2018-03-06T01:12:30.660Z,99.90
2018-03-06T01:14:58.118Z,99.90
2018-03-06T01:17:25.566Z,99.90
2018-03-06T01:19:53.020Z,99.90
2018-03-06T01:22:20.488Z,99.90
2018-03-06T01:24:47.955Z,99.90
2018-03-06T01:27:15.411Z,99.90
2018-03-06T01:29:42.906Z,99.90
2018-03-06T01:32:11.213Z,99.90
2018-03-06T01:34:38.678Z,99.90
2018-03-06T01:37:06.122Z,99.90
2018-03-06T01:39:33.584Z,99.90
2018-03-06T01:42:01.060Z,99.90
2018-03-06T01:44:28.509Z,99.90
2018-03-06T01:46:55.963Z,99.90
2018-03-06T01:49:23.465Z,99.90
2018-03-06T01:51:57.548Z,99.90
2018-03-06T01:54:25.010Z,99.90
2018-03-06T01:56:52.468Z,99.90
2018-03-06T01:59:19.933Z,99.90
2018-03-06T02:01:47.376Z,99.90
2018-03-06T02:04:14.832Z,99.90
2018-03-06T02:06:43.059Z,99.90
2018-03-06T02:09:10.516Z,99.90
2018-03-06T02:11:37.984Z,99.90
2018-03-06T02:14:05.428Z,99.90
2018-03-06T02:16:32.885Z,99.90
2018-03-06T02:19:00.336Z,99.90
2018-03-06T02:21:28.563Z,99.90
2018-03-06T02:23:56.022Z,99.90
2018-03-06T02:26:23.484Z,99.90
2018-03-06T02:28:50.942Z,99.90
2018-03-06T02:31:18.398Z,99.90
2018-03-06T02:33:45.859Z,99.90
2018-03-06T02:36:13.338Z,99.90
2018-03-06T02:38:41.555Z,99.90
2018-03-06T02:41:09.015Z,99.90
2018-03-06T02:43:36.471Z,99.90
2018-03-06T02:46:10.657Z,99.90
2018-03-06T02:48:38.876Z,99.90
2018-03-06T02:51:06.338Z,99.90
2018-03-06T02:53:33.802Z,99.90
2018-03-06T02:56:01.259Z,99.90
2018-03-06T02:58:28.723Z,99.90
2018-03-06T03:00:56.179Z,99.90
2018-03-06T03:03:23.643Z,99.90
2018-03-06T03:05:51.112Z,99.90
2018-03-06T03:08:18.564Z,99.90
2018-03-06T03:10:46.044Z,99.90
2018-03-06T03:13:14.263Z,99.90
2018-03-06T03:15:41.714Z,99.90
2018-03-06T03:18:09.191Z,99.90
2018-03-06T03:20:36.645Z,99.90
2018-03-06T03:23:04.889Z,99.90
2018-03-06T03:25:32.352Z,99.90
2018-03-06T03:27:59.811Z,99.90
2018-03-06T03:30:27.268Z,99.90
2018-03-06T03:32:54.732Z,99.90
2018-03-06T03:35:22.195Z,99.90
2018-03-06T03:37:50.423Z,99.90
2018-03-06T03:40:17.878Z,99.90
2018-03-06T03:42:46.117Z,99.90
2018-03-06T03:45:13.595Z,99.90
2018-03-06T03:47:41.827Z,99.90
2018-03-06T03:50:09.337Z,99.90
2018-03-06T03:52:37.559Z,99.90
2018-03-06T03:55:05.023Z,99.90
2018-03-06T03:57:32.486Z,99.90
2018-03-06T03:59:59.961Z,99.90
2018-03-06T04:02:27.420Z,99.90
2018-03-06T04:04:54.873Z,99.90
2018-03-06T04:07:22.343Z,99.90
2018-03-06T04:09:50.568Z,99.90
2018-03-06T04:12:18.036Z,99.90
2018-03-06T04:14:45.491Z,99.90
2018-03-06T04:17:12.950Z,99.90
2018-03-06T04:19:40.415Z,99.90
2018-03-06T04:22:07.887Z,99.90
2018-03-06T04:24:35.340Z,99.90
2018-03-06T04:27:02.807Z,99.90
2018-03-06T04:29:30.293Z,99.90
2018-03-06T04:31:57.742Z,99.90
2018-03-06T04:34:25.976Z,99.90
2018-03-06T04:36:53.424Z,99.90
2018-03-06T04:39:20.907Z,99.90
2018-03-06T04:41:48.364Z,99.90
2018-03-06T04:44:15.820Z,99.90
2018-03-06T04:46:43.267Z,99.90
2018-03-06T04:49:10.729Z,99.90
2018-03-06T04:51:38.185Z,99.90
2018-03-06T04:54:05.639Z,99.90
2018-03-06T04:56:33.123Z,99.90
2018-03-06T04:59:01.352Z,99.90
2018-03-06T05:01:28.819Z,99.90
2018-03-06T05:03:56.288Z,99.90
2018-03-06T05:06:23.748Z,99.90
2018-03-06T05:08:51.204Z,99.90
2018-03-06T05:11:18.659Z,99.90
2018-03-06T05:13:46.119Z,99.90
2018-03-06T05:16:13.741Z,99.90
2018-03-06T05:18:41.195Z,99.90
2018-03-06T05:21:08.657Z,99.90
2018-03-06T05:23:36.152Z,99.90
2018-03-06T05:26:03.612Z,99.90
2018-03-06T05:28:31.075Z,99.90
2018-03-06T05:30:59.335Z,99.90
2018-03-06T05:33:28.304Z,99.90
2018-03-06T05:35:55.760Z,99.90
2018-03-06T05:38:23.220Z,99.90
2018-03-06T05:40:50.672Z,99.90
2018-03-06T05:43:18.128Z,99.90
2018-03-06T05:45:45.587Z,99.90
2018-03-06T05:48:13.048Z,99.90
2018-03-06T05:50:40.509Z,99.90
2018-03-06T05:53:07.965Z,99.90
2018-03-06T05:55:35.424Z,99.90
2018-03-06T05:58:02.915Z,99.90
2018-03-06T06:00:31.164Z,99.90
2018-03-06T06:02:58.624Z,99.90
2018-03-06T06:05:26.095Z,99.90
2018-03-06T06:07:53.556Z,99.90
2018-03-06T06:10:21.804Z,99.90
2018-03-06T06:12:49.263Z,99.90
2018-03-06T06:15:16.724Z,99.90
2018-03-06T06:17:44.212Z,99.90
2018-03-06T06:20:12.436Z,99.90
2018-03-06T06:22:39.912Z,99.90
2018-03-06T06:25:07.371Z,99.90
2018-03-06T06:27:34.832Z,99.90
2018-03-06T06:30:02.326Z,99.90
2018-03-06T06:32:30.568Z,99.90
2018-03-06T06:34:58.028Z,99.90
2018-03-06T06:37:25.538Z,99.90
2018-03-06T06:39:53.002Z,99.90
2018-03-06T06:42:20.459Z,99.90
2018-03-06T06:44:47.920Z,99.90
2018-03-06T06:47:15.373Z,99.90
2018-03-06T06:49:42.836Z,99.90
2018-03-06T06:52:10.293Z,99.90
2018-03-06T06:54:37.743Z,99.90
2018-03-06T06:57:05.203Z,99.90
2018-03-06T06:59:32.671Z,99.90
2018-03-06T07:02:00.145Z,99.90
2018-03-06T07:04:27.625Z,99.90
2018-03-06T07:06:55.078Z,99.90
2018-03-06T07:09:23.300Z,99.90
2018-03-06T07:11:50.752Z,99.90
2018-03-06T07:14:18.220Z,99.90
2018-03-06T07:16:45.679Z,99.90
2018-03-06T07:19:13.133Z,99.90
2018-03-06T07:21:40.623Z,99.90
2018-03-06T07:24:08.081Z,99.90
2018-03-06T07:26:35.537Z,99.90
2018-03-06T07:29:03.004Z,99.90
2018-03-06T07:31:30.463Z,99.90
2018-03-06T07:33:57.919Z,99.90
2018-03-06T07:36:25.382Z,99.90
2018-03-06T07:38:53.596Z,99.90
2018-03-06T07:41:21.060Z,99.90
2018-03-06T07:43:48.560Z,99.90
2018-03-06T07:46:16.013Z,99.90
2018-03-06T07:48:43.462Z,99.90
2018-03-06T07:51:11.020Z,99.90
2018-03-06T07:53:38.427Z,99.90
2018-03-06T07:56:05.882Z,99.90
2018-03-06T07:58:33.371Z,99.90
2018-03-06T08:01:00.835Z,99.90
2018-03-06T08:03:28.299Z,99.90
2018-03-06T08:05:55.779Z,99.90
2018-03-06T08:08:24.007Z,99.90
2018-03-06T08:10:51.463Z,99.90
2018-03-06T08:13:18.920Z,99.90
2018-03-06T08:15:46.392Z,99.90
2018-03-06T08:18:13.838Z,99.90
2018-03-06T08:20:41.308Z,99.90
2018-03-06T08:23:08.771Z,99.90
2018-03-06T08:25:36.235Z,99.90
2018-03-06T08:28:03.713Z,99.90
2018-03-06T08:30:31.945Z,99.90
2018-03-06T08:32:59.404Z,99.90
2018-03-06T08:35:26.867Z,99.90
2018-03-06T08:37:54.333Z,99.90
2018-03-06T08:40:21.800Z,99.90
2018-03-06T08:42:49.256Z,99.90
2018-03-06T08:45:16.731Z,99.90
2018-03-06T08:47:44.956Z,99.90
2018-03-06T08:50:12.432Z,99.90
2018-03-06T08:52:39.894Z,99.90
2018-03-06T08:55:07.379Z,99.90
2018-03-06T08:57:35.603Z,99.90
2018-03-06T09:00:03.080Z,99.90
2018-03-06T09:02:30.565Z,99.90
2018-03-06T09:04:58.793Z,99.90
2018-03-06T09:07:26.275Z,99.90
2018-03-06T09:09:53.736Z,99.90
2018-03-06T09:12:21.208Z,99.90
2018-03-06T09:14:49.437Z,99.90
2018-03-06T09:17:16.932Z,99.90
2018-03-06T09:19:45.140Z,99.90
2018-03-06T09:22:12.614Z,99.90
2018-03-06T09:24:40.069Z,99.90
2018-03-06T09:27:07.526Z,99.90
2018-03-06T09:29:34.986Z,99.90
2018-03-06T09:32:02.439Z,99.90
2018-03-06T09:34:29.902Z,99.90
2018-03-06T09:36:57.380Z,99.90
2018-03-06T09:39:24.826Z,99.90
2018-03-06T09:41:52.292Z,99.90
2018-03-06T09:44:19.753Z,99.90
2018-03-06T09:46:47.210Z,99.90
2018-03-06T09:49:14.663Z,99.90
2018-03-06T09:51:42.131Z,99.90
2018-03-06T09:54:09.592Z,99.90
2018-03-06T09:56:37.060Z,99.90
2018-03-06T09:59:04.536Z,99.90
2018-03-06T10:01:32.792Z,99.90
2018-03-06T10:04:00.241Z,99.90
2018-03-06T10:06:27.753Z,99.90
2018-03-06T10:08:58.627Z,99.90
2018-03-06T10:11:26.126Z,99.90
2018-03-06T10:13:54.384Z,99.90
2018-03-06T10:16:21.872Z,99.90
2018-03-06T10:18:49.373Z,99.90
2018-03-06T10:21:16.868Z,99.90
2018-03-06T10:23:44.370Z,99.90
2018-03-06T10:26:11.877Z,99.90
2018-03-06T10:28:39.364Z,99.90
2018-03-06T10:31:06.856Z,99.90
2018-03-06T10:33:34.348Z,99.90
2018-03-06T10:36:01.868Z,99.90
2018-03-06T10:38:29.356Z,99.90
2018-03-06T10:40:56.889Z,99.90
2018-03-06T10:43:24.377Z,99.90
2018-03-06T10:45:51.867Z,99.90
2018-03-06T10:48:19.361Z,99.90
2018-03-06T10:50:46.860Z,99.90
2018-03-06T10:53:15.164Z,99.90
2018-03-06T10:55:42.614Z,99.90
2018-03-06T10:58:10.856Z,99.90
2018-03-06T11:00:44.060Z,99.90
2018-03-06T11:03:12.317Z,99.90
2018-03-06T11:05:39.766Z,99.90
2018-03-06T11:08:07.267Z,99.90
2018-03-06T11:10:34.676Z,99.90
2018-03-06T11:13:02.154Z,99.90
2018-03-06T11:15:30.375Z,99.90
2018-03-06T11:17:57.841Z,99.90
2018-03-06T11:20:25.295Z,99.90
2018-03-06T11:22:52.763Z,99.90
2018-03-06T11:25:20.215Z,99.90
2018-03-06T11:27:47.683Z,99.90
2018-03-06T11:30:17.147Z,99.90
2018-03-06T11:32:44.632Z,99.90
2018-03-06T11:35:12.093Z,99.90
2018-03-06T11:37:39.556Z,99.90
2018-03-06T11:40:07.033Z,99.90
2018-03-06T11:42:34.502Z,99.90
2018-03-06T11:45:02.763Z,99.90
2018-03-06T11:47:30.216Z,99.90
2018-03-06T11:49:57.678Z,99.90
2018-03-06T11:52:25.173Z,99.90
2018-03-06T11:54:53.382Z,99.00
2018-03-06T11:57:20.855Z,98.80
2018-03-06T11:59:48.307Z,99.90
2018-03-06T12:02:15.771Z,99.90
2018-03-06T12:04:43.220Z,97.40
2018-03-06T12:07:10.726Z,96.40
2018-03-06T12:09:38.936Z,99.90
2018-03-06T12:12:06.399Z,99.90
2018-03-06T12:14:33.876Z,99.90
2018-03-06T12:17:01.340Z,99.90
2018-03-06T12:19:28.793Z,99.90
2018-03-06T12:21:56.259Z,98.50
2018-03-06T12:24:23.722Z,99.00
2018-03-06T12:26:51.192Z,99.10
2018-03-06T12:29:19.412Z,97.90
2018-03-06T12:31:46.967Z,98.00
2018-03-06T12:34:14.428Z,96.60
2018-03-06T12:36:41.897Z,97.60
2018-03-06T12:39:09.349Z,95.50
2018-03-06T12:41:36.846Z,94.90
2018-03-06T12:44:05.065Z,96.00
2018-03-06T12:46:32.560Z,96.00
2018-03-06T12:49:00.017Z,94.40
2018-03-06T12:51:27.493Z,95.70
2018-03-06T12:53:55.716Z,94.30
2018-03-06T12:56:23.177Z,94.20
2018-03-06T12:58:50.645Z,92.80
2018-03-06T13:01:18.109Z,92.30
2018-03-06T13:03:45.585Z,91.40
2018-03-06T13:06:13.041Z,87.30
2018-03-06T13:08:40.498Z,86.70
2018-03-06T13:11:08.735Z,89.10
2018-03-06T13:13:36.192Z,88.90
2018-03-06T13:16:03.673Z,90.80
2018-03-06T13:18:31.149Z,90.20
2018-03-06T13:20:58.599Z,86.80
2018-03-06T13:23:26.063Z,85.30
2018-03-06T13:25:53.511Z,86.40
2018-03-06T13:28:20.978Z,86.20
2018-03-06T13:30:49.206Z,90.80
2018-03-06T13:33:16.686Z,90.70
2018-03-06T13:35:44.140Z,87.10
2018-03-06T13:38:11.604Z,89.00
2018-03-06T13:40:39.060Z,85.50
2018-03-06T13:43:06.526Z,88.10
2018-03-06T13:45:33.988Z,86.20
2018-03-06T13:48:01.461Z,84.30
2018-03-06T13:50:29.705Z,86.50
2018-03-06T13:52:57.167Z,86.50
2018-03-06T13:55:24.627Z,87.30
2018-03-06T13:57:52.107Z,87.50
2018-03-06T14:00:20.336Z,87.20
2018-03-06T14:02:47.812Z,87.10
2018-03-06T14:05:15.271Z,86.80
2018-03-06T14:07:42.731Z,84.70
2018-03-06T14:10:10.204Z,83.80
2018-03-06T14:12:37.674Z,86.20
2018-03-06T14:15:05.897Z,88.80
2018-03-06T14:17:33.368Z,88.60
2018-03-06T14:20:00.819Z,90.90
2018-03-06T14:22:28.295Z,90.50
2018-03-06T14:24:55.765Z,91.50
2018-03-06T14:27:23.987Z,92.10
2018-03-06T14:29:51.440Z,92.10
2018-03-06T14:32:18.914Z,92.70
2018-03-06T14:34:46.364Z,91.90
2018-03-06T14:37:13.844Z,92.10
2018-03-06T14:39:41.304Z,91.10
2018-03-06T14:42:08.776Z,92.20
2018-03-06T14:44:36.991Z,95.40
2018-03-06T14:47:04.456Z,95.40
2018-03-06T14:49:31.919Z,95.90
2018-03-06T14:51:59.360Z,96.40
2018-03-06T14:54:26.817Z,96.80
2018-03-06T14:56:54.276Z,97.90
2018-03-06T14:59:21.731Z,99.90
2018-03-06T15:01:49.193Z,99.90
2018-03-06T15:04:16.657Z,99.90
2018-03-06T15:06:44.132Z,99.90
2018-03-06T15:09:11.587Z,99.90
2018-03-06T15:11:39.039Z,99.90
2018-03-06T15:14:06.527Z,99.90
2018-03-06T15:16:33.988Z,99.90
2018-03-06T15:19:02.210Z,99.90
2018-03-06T15:21:29.662Z,99.90
2018-03-06T15:23:57.123Z,99.90
2018-03-06T15:26:24.577Z,99.90
2018-03-06T15:28:52.047Z,99.90
2018-03-06T15:31:19.505Z,99.90
2018-03-06T15:33:46.959Z,99.90
2018-03-06T15:36:14.419Z,99.90
2018-03-06T15:38:41.917Z,99.90
2018-03-06T15:41:09.352Z,99.90
2018-03-06T15:43:36.831Z,99.90
2018-03-06T15:46:05.049Z,99.90
2018-03-06T15:48:32.508Z,99.90
2018-03-06T15:50:59.980Z,99.90
2018-03-06T15:53:27.436Z,99.90
2018-03-06T15:55:54.896Z,99.90
2018-03-06T15:58:22.369Z,99.90
2018-03-06T16:00:49.912Z,99.90
2018-03-06T16:03:17.381Z,99.90
2018-03-06T16:05:44.836Z,99.90
2018-03-06T16:08:12.311Z,99.90
2018-03-06T16:10:40.561Z,99.90
2018-03-06T16:13:08.788Z,99.90
2018-03-06T16:15:36.264Z,99.90
2018-03-06T16:18:03.716Z,99.90
2018-03-06T16:20:31.167Z,99.90
2018-03-06T16:22:58.660Z,99.90
2018-03-06T16:25:26.119Z,99.90
2018-03-06T16:27:53.577Z,99.90
2018-03-06T16:30:21.041Z,99.90
2018-03-06T16:32:48.509Z,99.90
2018-03-06T16:35:15.977Z,99.90
2018-03-06T16:37:44.232Z,99.90
2018-03-06T16:40:11.685Z,99.90
2018-03-06T16:42:40.640Z,99.90
2018-03-06T16:45:08.096Z,99.90
2018-03-06T16:47:35.553Z,99.90
2018-03-06T16:50:03.014Z,99.90
2018-03-06T16:52:30.469Z,99.90
2018-03-06T16:54:57.930Z,99.90
2018-03-06T16:57:25.373Z,99.90
2018-03-06T16:59:53.590Z,99.90
2018-03-06T17:02:21.039Z,99.90
2018-03-06T17:04:48.560Z,99.90
2018-03-06T17:07:15.982Z,99.90
2018-03-06T17:09:43.444Z,99.90
2018-03-06T17:12:11.664Z,99.90
2018-03-06T17:14:39.120Z,99.90
2018-03-06T17:17:06.579Z,99.90
2018-03-06T17:19:34.046Z,99.90
2018-03-06T17:22:01.496Z,99.90
2018-03-06T17:24:28.951Z,99.90
2018-03-06T17:26:56.397Z,99.90
2018-03-06T17:29:23.867Z,99.90
2018-03-06T17:31:51.312Z,99.90
2018-03-06T17:34:18.773Z,99.90
2018-03-06T17:36:46.218Z,99.90
2018-03-06T17:39:13.688Z,99.90
2018-03-06T17:41:41.136Z,99.90
2018-03-06T17:44:08.599Z,99.90
2018-03-06T17:46:36.134Z,99.90
2018-03-06T17:49:04.352Z,99.90
2018-03-06T17:51:31.818Z,99.90
2018-03-06T17:53:59.285Z,99.90
2018-03-06T17:56:26.738Z,99.90
2018-03-06T17:58:54.264Z,99.90
2018-03-06T18:01:21.710Z,99.90
2018-03-06T18:03:49.168Z,99.90
2018-03-06T18:06:16.668Z,99.90
2018-03-06T18:08:44.128Z,99.90
2018-03-06T18:11:11.583Z,99.90
2018-03-06T18:13:39.074Z,99.90
2018-03-06T18:16:07.285Z,99.90
2018-03-06T18:18:34.733Z,99.90
2018-03-06T18:21:02.194Z,99.90
2018-03-06T18:23:29.639Z,99.90
2018-03-06T18:25:57.104Z,99.90
2018-03-06T18:28:25.315Z,99.90
2018-03-06T18:30:52.788Z,99.90
2018-03-06T18:33:20.223Z,99.90
2018-03-06T18:35:47.700Z,99.90
2018-03-06T18:38:15.140Z,99.90
2018-03-06T18:40:42.604Z,99.90
2018-03-06T18:43:10.115Z,99.90
2018-03-06T18:45:37.580Z,99.90
2018-03-06T18:48:05.036Z,99.90
2018-03-06T18:50:44.562Z,99.90
2018-03-06T18:53:12.005Z,99.90
2018-03-06T18:55:40.231Z,99.90
2018-03-06T18:58:07.685Z,99.90
2018-03-06T19:14:03.435Z,99.90
2018-03-06T19:16:30.898Z,99.90
2018-03-06T19:18:58.499Z,99.90
2018-03-06T19:21:26.035Z,99.90
2018-03-06T19:23:53.827Z,99.90
2018-03-06T19:26:21.307Z,99.90
2018-03-06T19:28:48.982Z,99.90
2018-03-06T19:31:16.839Z,99.90
2018-03-06T19:33:44.927Z,99.90
2018-03-06T19:36:12.671Z,99.90
2018-03-06T19:38:40.436Z,99.90
2018-03-06T19:41:08.056Z,99.90
2018-03-06T19:43:35.631Z,99.90
2018-03-06T19:46:03.332Z,99.90
2018-03-06T19:48:30.780Z,99.90
2018-03-06T19:50:58.344Z,99.90
2018-03-06T19:53:26.098Z,99.90
2018-03-06T19:55:54.172Z,99.90
2018-03-06T19:58:22.247Z,99.90
2018-03-06T20:00:49.884Z,99.90
2018-03-06T20:03:17.645Z,99.90
2018-03-06T20:05:45.248Z,99.90
2018-03-06T20:08:12.692Z,99.90
2018-03-06T20:10:40.136Z,99.90
2018-03-06T20:13:07.608Z,99.90
2018-03-06T20:15:35.368Z,99.90
2018-03-06T20:18:02.842Z,99.90
2018-03-06T20:20:30.286Z,99.90
2018-03-06T20:22:57.730Z,99.90
2018-03-06T20:25:31.447Z,99.90
2018-03-06T20:27:58.899Z,99.90
2018-03-06T20:30:32.271Z,99.90
2018-03-06T20:33:05.358Z,99.90
2018-03-06T20:35:33.023Z,99.90
2018-03-06T20:38:00.478Z,99.90
2018-03-06T20:40:32.190Z,99.90
2018-03-06T20:43:01.023Z,99.90
2018-03-06T20:45:34.362Z,99.90
2018-03-06T20:48:02.079Z,99.90
2018-03-06T20:50:29.788Z,99.90
2018-03-06T20:53:03.274Z,99.90
2018-03-06T20:55:30.927Z,99.90
2018-03-06T20:57:58.559Z,99.90
2018-03-06T21:00:25.998Z,99.90
2018-03-06T21:02:54.834Z,99.90
2018-03-06T21:05:22.636Z,99.90
2018-03-06T21:07:50.405Z,99.90
2018-03-06T21:10:17.897Z,99.90
2018-03-06T21:12:45.550Z,99.90
2018-03-06T21:15:13.351Z,99.90
2018-03-06T21:17:40.805Z,99.90
2018-03-06T21:20:08.250Z,99.90
2018-03-06T21:22:35.918Z,99.90
2018-03-06T21:25:03.434Z,99.90
2018-03-06T21:27:31.131Z,99.90
2018-03-06T21:29:58.618Z,99.90
2018-03-06T21:32:26.385Z,99.90
2018-03-06T21:34:55.158Z,99.90
2018-03-06T21:37:23.100Z,99.90
2018-03-06T21:39:50.543Z,99.90
2018-03-06T21:42:18.139Z,99.90
2018-03-06T21:44:45.909Z,99.90
2018-03-06T21:47:13.548Z,99.90
2018-03-06T21:49:41.327Z,99.90
2018-03-06T21:52:09.048Z,99.90
2018-03-06T21:54:37.476Z,99.90
2018-03-06T21:57:05.206Z,99.90
2018-03-06T21:59:32.698Z,99.90
2018-03-06T22:02:00.179Z,99.90
2018-03-06T22:04:28.051Z,99.90
2018-03-06T22:06:55.471Z,99.90
2018-03-06T22:09:22.912Z,99.90
2018-03-06T22:11:50.471Z,99.90
2018-03-06T22:14:18.015Z,99.90
2018-03-06T22:16:45.504Z,99.90
2018-03-06T22:19:12.967Z,99.90
2018-03-06T22:21:40.531Z,99.90
2018-03-06T22:24:08.159Z,99.90
2018-03-06T22:26:35.608Z,99.90
2018-03-06T22:29:03.066Z,99.90
2018-03-06T22:31:30.662Z,99.90
2018-03-06T22:33:58.424Z,99.90
2018-03-06T22:36:26.214Z,99.90
2018-03-06T22:38:54.036Z,99.90
2018-03-06T22:41:21.627Z,99.90
2018-03-06T22:43:49.072Z,99.90
2018-03-06T22:46:16.778Z,99.90
2018-03-06T22:48:45.504Z,99.90
2018-03-06T22:51:12.983Z,99.90
2018-03-06T22:53:40.451Z,99.90
2018-03-06T22:56:07.902Z,99.90
2018-03-06T22:58:35.363Z,99.90
2018-03-06T23:01:02.809Z,99.90
2018-03-06T23:03:30.266Z,99.90
2018-03-06T23:05:58.441Z,99.90
2018-03-06T23:08:26.191Z,99.90
2018-03-06T23:10:53.836Z,99.90
2018-03-06T23:13:21.601Z,99.90
2018-03-06T23:15:49.043Z,99.90
2018-03-06T23:18:16.859Z,99.90
2018-03-06T23:20:44.299Z,99.90
2018-03-06T23:23:12.089Z,99.90
2018-03-06T23:25:39.822Z,99.90
2018-03-06T23:28:07.559Z,99.90
2018-03-06T23:30:34.991Z,99.90
2018-03-06T23:33:02.440Z,99.90
2018-03-06T23:35:30.126Z,99.90
2018-03-06T23:37:57.842Z,99.90
2018-03-06T23:40:25.467Z,99.90
2018-03-06T23:42:53.064Z,99.90
2018-03-06T23:45:20.827Z,99.90
2018-03-06T23:47:48.586Z,99.90
2018-03-06T23:50:16.227Z,99.90
2018-03-06T23:52:43.992Z,99.90
2018-03-06T23:55:11.515Z,99.90
2018-03-06T23:57:39.607Z,99.90
